createdAt,value
2023-03-18T00:01:04.012Z,4.13
2023-03-18T00:03:32.486Z,7.45
2023-03-18T00:06:08.731Z,7.80
2023-03-18T00:08:35.812Z,4.15
2023-03-18T00:11:05.479Z,5.10
2023-03-18T00:13:33.729Z,6.03
2023-03-18T00:16:02.357Z,6.07
2023-03-18T00:18:29.982Z,5.03
2023-03-18T00:20:58.707Z,6.68
2023-03-18T00:23:26.521Z,4.15
2023-03-18T00:25:54.606Z,5.97
2023-03-18T00:28:21.706Z,3.78
2023-03-18T00:30:49.558Z,3.58
2023-03-18T00:33:17.766Z,5.88
2023-03-18T00:35:45.597Z,5.05
2023-03-18T00:38:20.740Z,5.07
2023-03-18T00:41:01.587Z,3.88
2023-03-18T00:43:33.479Z,8.60
2023-03-18T00:46:00.924Z,4.85
2023-03-18T00:48:28.037Z,6.82
2023-03-18T00:50:55.908Z,4.78
2023-03-18T00:53:25.043Z,6.55
2023-03-18T00:55:53.067Z,6.78
2023-03-18T00:58:20.150Z,7.03
2023-03-18T01:00:47.294Z,9.73
2023-03-18T01:03:14.810Z,6.88
2023-03-18T01:05:42.386Z,5.68
2023-03-18T01:08:09.457Z,5.03
2023-03-18T01:10:36.615Z,6.38
2023-03-18T01:13:03.978Z,6.50
2023-03-18T01:15:30.991Z,8.13
2023-03-18T01:17:58.452Z,6.85
2023-03-18T01:20:25.646Z,8.40
2023-03-18T01:22:52.972Z,7.78
2023-03-18T01:25:20.328Z,7.88
2023-03-18T01:27:47.452Z,8.40
2023-03-18T01:30:14.792Z,6.63
2023-03-18T01:32:43.861Z,5.53
2023-03-18T01:35:12.328Z,8.35
2023-03-18T01:37:40.091Z,9.20
2023-03-18T01:40:08.158Z,11.35
2023-03-18T01:42:35.784Z,7.38
2023-03-18T01:45:16.108Z,10.30
2023-03-18T01:47:44.783Z,7.50
2023-03-18T01:50:13.091Z,10.80
2023-03-18T01:52:40.572Z,10.50
2023-03-18T01:55:10.420Z,8.48
2023-03-18T01:57:37.577Z,11.82
2023-03-18T02:00:05.720Z,9.30
2023-03-18T02:02:33.911Z,7.45
2023-03-18T02:05:03.885Z,9.52
2023-03-18T02:07:32.773Z,10.23
2023-03-18T02:10:03.598Z,10.60
2023-03-18T02:12:35.491Z,11.40
2023-03-18T02:15:05.992Z,13.20
2023-03-18T02:17:35.167Z,13.07
2023-03-18T02:20:02.217Z,8.38
2023-03-18T02:22:39.595Z,10.48
2023-03-18T02:25:25.183Z,11.75
2023-03-18T02:27:54.948Z,12.80
2023-03-18T02:30:24.413Z,12.27
2023-03-18T02:32:52.338Z,11.77
2023-03-18T02:35:20.641Z,16.92
2023-03-18T02:37:47.848Z,11.65
2023-03-18T02:40:19.592Z,12.95
2023-03-18T02:42:47.688Z,13.10
2023-03-18T02:45:24.567Z,12.20
2023-03-18T02:47:52.738Z,12.32
2023-03-18T02:50:20.405Z,12.85
2023-03-18T02:52:47.522Z,13.55
2023-03-18T02:55:15.452Z,11.63
2023-03-18T02:57:42.524Z,14.20
2023-03-18T03:00:11.004Z,15.70
2023-03-18T03:02:38.159Z,11.90
2023-03-18T03:05:05.418Z,15.23
2023-03-18T03:07:32.522Z,13.00
2023-03-18T03:09:59.642Z,13.85
2023-03-18T03:12:26.660Z,13.20
2023-03-18T03:14:53.735Z,13.07
2023-03-18T03:17:23.104Z,15.55
2023-03-18T03:19:50.659Z,13.02
2023-03-18T03:22:18.510Z,13.48
2023-03-18T03:24:54.392Z,10.75
2023-03-18T03:27:21.752Z,16.08
2023-03-18T03:29:49.636Z,14.73
2023-03-18T03:32:17.164Z,12.95
2023-03-18T03:34:44.256Z,12.50
2023-03-18T03:37:11.407Z,13.35
2023-03-18T03:39:38.755Z,11.70
2023-03-18T03:42:05.854Z,11.18
2023-03-18T03:44:32.919Z,15.40
2023-03-18T03:46:59.955Z,13.10
2023-03-18T03:49:27.204Z,12.93
2023-03-18T03:51:54.206Z,13.63
2023-03-18T03:54:21.265Z,13.07
2023-03-18T03:56:51.364Z,11.68
2023-03-18T03:59:18.793Z,11.32
2023-03-18T04:01:46.284Z,14.93
2023-03-18T04:04:13.473Z,13.77
2023-03-18T04:06:40.622Z,14.05
2023-03-18T04:09:07.700Z,13.65
2023-03-18T04:11:34.782Z,12.45
2023-03-18T04:14:01.910Z,15.30
2023-03-18T04:16:29.072Z,16.40
2023-03-18T04:18:56.143Z,17.40
2023-03-18T04:21:23.343Z,12.73
2023-03-18T04:23:50.432Z,15.70
2023-03-18T04:26:17.486Z,13.60
2023-03-18T04:28:44.585Z,14.65
2023-03-18T04:31:11.806Z,11.90
2023-03-18T04:33:39.793Z,17.83
2023-03-18T04:36:07.119Z,12.50
2023-03-18T04:38:34.293Z,13.25
2023-03-18T04:41:01.427Z,12.20
2023-03-18T04:43:28.510Z,15.07
2023-03-18T04:45:55.605Z,17.77
2023-03-18T04:48:23.443Z,16.70
2023-03-18T04:50:50.980Z,13.20
2023-03-18T04:53:18.083Z,13.00
2023-03-18T04:55:45.155Z,14.90
2023-03-18T04:58:12.268Z,12.60
2023-03-18T05:00:39.353Z,13.13
2023-03-18T05:03:07.352Z,11.40
2023-03-18T05:05:37.333Z,16.88
2023-03-18T05:08:05.712Z,14.60
2023-03-18T05:10:33.025Z,16.17
2023-03-18T05:13:00.610Z,15.20
2023-03-18T05:15:27.742Z,18.67
2023-03-18T05:17:54.806Z,13.18
2023-03-18T05:20:22.489Z,17.38
2023-03-18T05:22:49.624Z,13.10
2023-03-18T05:25:17.007Z,13.10
2023-03-18T05:27:44.144Z,11.70
2023-03-18T05:30:12.289Z,13.48
2023-03-18T05:32:40.491Z,15.45
2023-03-18T05:35:08.316Z,13.90
2023-03-18T05:37:35.962Z,13.85
2023-03-18T05:40:04.142Z,14.63
2023-03-18T05:42:31.912Z,12.10
2023-03-18T05:44:59.223Z,13.48
2023-03-18T05:47:26.244Z,14.55
2023-03-18T05:49:53.299Z,13.57
2023-03-18T05:52:20.579Z,11.25
2023-03-18T05:54:48.239Z,15.50
2023-03-18T05:57:15.730Z,14.90
2023-03-18T05:59:43.803Z,13.90
2023-03-18T06:02:11.720Z,12.70
2023-03-18T06:04:40.117Z,12.70
2023-03-18T06:07:07.180Z,13.52
2023-03-18T06:09:34.376Z,12.85
2023-03-18T06:12:01.507Z,12.18
2023-03-18T06:14:29.466Z,16.38
2023-03-18T06:16:57.016Z,14.77
2023-03-18T06:19:25.269Z,12.07
2023-03-18T06:21:53.122Z,11.85
2023-03-18T06:24:21.088Z,11.95
2023-03-18T06:26:48.140Z,12.80
2023-03-18T06:29:15.195Z,11.23
2023-03-18T06:31:42.203Z,11.80
2023-03-18T06:34:09.318Z,11.52
2023-03-18T06:36:36.666Z,11.25
2023-03-18T06:39:04.200Z,10.95
2023-03-18T06:41:31.342Z,14.68
2023-03-18T06:43:58.456Z,12.30
2023-03-18T06:46:25.853Z,13.38
2023-03-18T06:48:54.334Z,13.20
2023-03-18T06:51:21.429Z,12.00
2023-03-18T06:53:48.578Z,15.00
2023-03-18T06:56:16.504Z,10.23
2023-03-18T06:58:43.712Z,14.23
2023-03-18T07:01:12.520Z,9.95
2023-03-18T07:03:39.796Z,11.18
2023-03-18T07:06:07.774Z,11.18
2023-03-18T07:08:36.183Z,12.38
2023-03-18T07:11:03.990Z,11.82
2023-03-18T07:13:31.284Z,13.32
2023-03-18T07:15:58.974Z,13.80
2023-03-18T07:18:26.062Z,14.00
2023-03-18T07:20:53.231Z,12.52
2023-03-18T07:23:20.696Z,16.20
2023-03-18T07:25:47.835Z,16.50
2023-03-18T07:28:15.444Z,15.70
2023-03-18T07:30:42.989Z,14.32
2023-03-18T07:33:10.134Z,18.70
2023-03-18T07:35:40.849Z,15.13
2023-03-18T07:38:12.452Z,18.10
2023-03-18T07:40:39.572Z,18.70
2023-03-18T07:43:07.016Z,17.58
2023-03-18T07:45:34.840Z,19.75
2023-03-18T07:48:01.926Z,17.20
2023-03-18T07:50:29.139Z,16.95
2023-03-18T07:52:57.014Z,17.67
2023-03-18T07:55:24.377Z,21.17
2023-03-18T07:57:51.558Z,18.98
2023-03-18T08:00:18.988Z,18.88
2023-03-18T08:02:46.017Z,15.65
2023-03-18T08:05:14.357Z,15.77
2023-03-18T08:07:41.645Z,15.00
2023-03-18T08:10:09.149Z,16.92
2023-03-18T08:12:51.629Z,12.98
2023-03-18T08:15:19.985Z,15.98
2023-03-18T08:17:47.290Z,16.13
2023-03-18T08:20:15.205Z,14.52
2023-03-18T08:22:42.334Z,13.95
2023-03-18T08:25:09.749Z,14.93
2023-03-18T08:27:36.845Z,17.15
2023-03-18T08:30:04.287Z,14.45
2023-03-18T08:32:32.480Z,19.50
2023-03-18T08:34:59.623Z,15.75
2023-03-18T08:37:26.686Z,19.35
2023-03-18T08:39:54.507Z,13.73
2023-03-18T08:42:21.597Z,14.68
2023-03-18T08:44:48.838Z,12.73
2023-03-18T08:47:15.906Z,11.75
2023-03-18T08:49:43.013Z,12.35
2023-03-18T08:52:10.546Z,12.70
2023-03-18T08:54:37.606Z,12.88
2023-03-18T08:57:04.932Z,10.15
2023-03-18T08:59:32.042Z,12.95
2023-03-18T09:01:59.122Z,11.70
2023-03-18T09:04:26.350Z,11.05
2023-03-18T09:06:53.443Z,12.52
2023-03-18T09:09:21.544Z,13.55
2023-03-18T09:11:51.553Z,12.93
2023-03-18T09:14:18.575Z,11.60
2023-03-18T09:16:46.119Z,11.43
2023-03-18T09:19:13.209Z,11.43
2023-03-18T09:21:40.376Z,10.82
2023-03-18T09:24:07.664Z,11.25
2023-03-18T09:26:34.693Z,13.18
2023-03-18T09:29:01.745Z,12.20
2023-03-18T09:31:28.825Z,14.05
2023-03-18T09:33:56.110Z,12.13
2023-03-18T09:36:23.322Z,11.02
2023-03-18T09:38:50.495Z,11.00
2023-03-18T09:41:36.420Z,13.07
2023-03-18T09:44:17.704Z,12.13
2023-03-18T09:46:49.382Z,10.63
2023-03-18T09:49:16.677Z,10.43
2023-03-18T09:51:46.126Z,10.75
2023-03-18T09:54:16.593Z,8.88
2023-03-18T09:56:44.182Z,7.47
2023-03-18T09:59:17.117Z,9.50
2023-03-18T10:01:46.943Z,9.88
2023-03-18T10:04:42.815Z,11.68
2023-03-18T10:07:14.994Z,14.73
2023-03-18T10:09:52.161Z,9.98
2023-03-18T10:12:25.073Z,10.63
2023-03-18T10:14:58.693Z,8.13
2023-03-18T10:17:35.477Z,6.90
2023-03-18T10:20:04.872Z,10.80
2023-03-18T10:22:54.989Z,10.70
2023-03-18T10:25:22.084Z,11.70
2023-03-18T10:28:08.407Z,8.10
2023-03-18T10:31:04.965Z,10.50
2023-03-18T10:33:34.878Z,10.93
2023-03-18T10:36:02.081Z,10.57
2023-03-18T10:38:33.304Z,10.70
2023-03-18T10:41:01.196Z,12.10
2023-03-18T10:43:30.501Z,8.48
2023-03-18T10:46:06.018Z,11.02
2023-03-18T10:48:35.081Z,10.05
2023-03-18T10:51:13.654Z,7.93
2023-03-18T10:53:47.909Z,8.45
2023-03-18T10:56:15.619Z,8.32
2023-03-18T10:58:43.666Z,8.20
2023-03-18T11:01:12.478Z,8.52
2023-03-18T11:03:44.625Z,10.23
2023-03-18T11:06:31.509Z,8.75
2023-03-18T11:09:06.285Z,7.22
2023-03-18T11:11:34.814Z,10.77
2023-03-18T11:14:03.381Z,8.65
2023-03-18T11:16:33.720Z,11.68
2023-03-18T11:19:06.842Z,8.48
2023-03-18T11:21:34.572Z,7.32
2023-03-18T11:24:10.661Z,10.45
2023-03-18T11:27:07.188Z,6.72
2023-03-18T11:29:34.929Z,8.45
2023-03-18T11:32:02.695Z,5.70
2023-03-18T11:34:31.228Z,8.40
2023-03-18T11:37:05.759Z,7.38
2023-03-18T11:39:36.674Z,7.90
2023-03-18T11:42:06.138Z,8.65
2023-03-18T11:44:33.740Z,7.38
2023-03-18T11:47:06.133Z,10.10
2023-03-18T11:49:34.295Z,7.25
2023-03-18T11:52:15.378Z,9.95
2023-03-18T11:54:49.004Z,8.52
2023-03-18T11:57:23.161Z,6.95
2023-03-18T11:59:59.104Z,8.23
2023-03-18T12:02:45.187Z,7.45
2023-03-18T12:05:33.055Z,7.40
2023-03-18T12:08:01.436Z,7.50
2023-03-18T12:10:29.636Z,9.18
2023-03-18T12:13:05.504Z,9.52
2023-03-18T12:15:38.612Z,11.88
2023-03-18T12:18:24.293Z,11.93
2023-03-18T12:20:52.512Z,9.88
2023-03-18T12:23:25.692Z,9.75
2023-03-18T12:25:58.170Z,9.25
2023-03-18T12:28:32.885Z,10.38
2023-03-18T12:31:14.147Z,8.05
2023-03-18T12:33:56.315Z,6.95
2023-03-18T12:36:27.522Z,6.20
2023-03-18T12:38:54.522Z,6.78
2023-03-18T12:41:44.035Z,8.40
2023-03-18T12:44:24.744Z,6.30
2023-03-18T12:46:58.047Z,5.88
2023-03-18T12:50:00.912Z,5.47
2023-03-18T12:52:27.956Z,4.40
2023-03-18T12:55:01.125Z,5.43
2023-03-18T12:57:37.965Z,5.97
2023-03-18T13:00:18.624Z,4.75
2023-03-18T13:02:56.138Z,4.75
2023-03-18T13:05:36.764Z,5.38
2023-03-18T13:08:03.902Z,6.95
2023-03-18T13:10:34.378Z,5.10
2023-03-18T13:13:04.003Z,6.13
2023-03-18T13:15:36.952Z,4.13
2023-03-18T13:18:14.385Z,3.47
2023-03-18T13:20:44.653Z,7.38
2023-03-18T13:23:24.778Z,5.25
2023-03-18T13:26:01.868Z,4.97
2023-03-18T13:28:41.714Z,4.20
2023-03-18T13:31:11.942Z,3.78
2023-03-18T13:33:57.633Z,4.40
2023-03-18T13:36:33.570Z,5.63
2023-03-18T13:39:18.076Z,3.20
2023-03-18T13:42:11.779Z,5.03
2023-03-18T13:45:01.896Z,5.28
2023-03-18T13:47:33.258Z,3.72
2023-03-18T13:50:01.183Z,5.43
2023-03-18T13:52:42.764Z,3.75
2023-03-18T13:55:28.821Z,3.83
2023-03-18T13:57:58.892Z,4.13
2023-03-18T14:00:31.037Z,5.28
2023-03-18T14:03:19.385Z,5.18
2023-03-18T14:05:47.195Z,5.50
2023-03-18T14:08:34.033Z,3.95
2023-03-18T14:11:28.658Z,5.20
2023-03-18T14:13:55.858Z,4.63
2023-03-18T14:16:23.997Z,12.07
2023-03-18T14:19:10.106Z,4.82
2023-03-18T14:21:44.514Z,5.03
2023-03-18T14:24:23.154Z,5.90
2023-03-18T14:26:59.139Z,3.65
2023-03-18T14:29:30.814Z,4.13
2023-03-18T14:34:48.773Z,4.40
2023-03-18T14:37:19.326Z,5.88
2023-03-18T14:39:47.925Z,4.95
2023-03-18T14:42:23.880Z,4.85
2023-03-18T14:44:53.443Z,3.38
2023-03-18T14:47:37.571Z,2.55
2023-03-18T14:50:15.311Z,2.00
2023-03-18T14:52:43.819Z,1.73
2023-03-18T14:55:34.169Z,5.20
2023-03-18T14:58:02.022Z,2.58
2023-03-18T15:00:31.307Z,3.08
2023-03-18T15:03:04.644Z,3.42
2023-03-18T15:05:36.748Z,2.88
2023-03-18T15:08:11.653Z,3.45
2023-03-18T15:10:38.892Z,2.58
2023-03-18T15:13:15.169Z,4.78
2023-03-18T15:15:42.702Z,6.45
2023-03-18T15:18:24.972Z,6.95
2023-03-18T15:20:54.488Z,4.25
2023-03-18T15:23:24.363Z,3.17
2023-03-18T15:25:51.470Z,4.82
2023-03-18T15:28:19.633Z,4.93
2023-03-18T15:30:55.697Z,7.45
2023-03-18T15:33:24.256Z,6.15
2023-03-18T15:35:55.563Z,5.30
2023-03-18T15:38:26.757Z,6.00
2023-03-18T15:41:12.269Z,3.88
2023-03-18T15:43:43.907Z,4.95
2023-03-18T15:46:25.696Z,5.53
2023-03-18T15:48:56.988Z,4.85
2023-03-18T15:51:30.039Z,4.90
2023-03-18T15:53:59.070Z,4.97
2023-03-18T15:56:29.496Z,5.03
2023-03-18T15:59:16.156Z,5.57
2023-03-18T16:01:43.380Z,5.18
2023-03-18T16:04:12.543Z,6.07
2023-03-18T16:06:40.356Z,5.45
2023-03-18T16:09:24.054Z,6.07
2023-03-18T16:11:57.454Z,6.63
2023-03-18T16:14:26.473Z,3.97
2023-03-18T16:16:53.636Z,7.13
2023-03-18T16:19:27.569Z,5.38
2023-03-18T16:21:56.235Z,4.88
2023-03-18T16:24:23.721Z,7.80
2023-03-18T16:26:52.400Z,6.88
2023-03-18T16:29:24.324Z,6.70
2023-03-18T16:31:51.598Z,4.82
2023-03-18T16:34:21.729Z,4.13
2023-03-18T16:36:50.605Z,6.47
2023-03-18T16:39:24.305Z,6.28
2023-03-18T16:41:52.369Z,5.88
2023-03-18T16:44:21.172Z,4.53
2023-03-18T16:46:54.202Z,6.30
2023-03-18T16:49:29.910Z,3.85
2023-03-18T16:51:57.720Z,4.93
2023-03-18T16:54:26.365Z,4.30
2023-03-18T16:56:55.858Z,4.00
2023-03-18T16:59:23.087Z,5.70
2023-03-18T17:01:50.576Z,6.35
2023-03-18T17:04:31.317Z,4.45
2023-03-18T17:06:59.701Z,4.07
2023-03-18T17:09:27.358Z,4.32
2023-03-18T17:11:56.968Z,5.55
2023-03-18T17:14:23.998Z,3.47
2023-03-18T17:16:51.140Z,4.18
2023-03-18T17:19:18.511Z,3.83
2023-03-18T17:21:45.592Z,5.18
2023-03-18T17:24:12.614Z,5.65
2023-03-18T17:26:39.747Z,7.65
2023-03-18T17:29:08.425Z,4.68
2023-03-18T17:31:35.475Z,6.50
2023-03-18T17:34:02.634Z,10.10
2023-03-18T17:36:32.789Z,6.20
2023-03-18T17:39:00.161Z,5.65
2023-03-18T17:41:27.274Z,5.40
2023-03-18T17:43:54.351Z,6.95
2023-03-18T17:46:21.413Z,7.78
2023-03-18T17:48:48.557Z,5.57
2023-03-18T17:51:20.657Z,7.85
2023-03-18T17:53:51.278Z,9.80
2023-03-18T17:56:19.415Z,7.00
2023-03-18T17:58:47.494Z,7.90
2023-03-18T18:01:16.471Z,109.30
2023-03-18T18:03:43.737Z,50.72
2023-03-18T18:06:18.460Z,31.45
2023-03-18T18:08:45.526Z,19.92
2023-03-18T18:11:17.622Z,16.35
2023-03-18T18:13:44.679Z,11.82
2023-03-18T18:16:12.205Z,14.63
2023-03-18T18:18:40.012Z,15.25
2023-03-18T18:21:11.701Z,16.80
2023-03-18T18:23:40.153Z,16.33
2023-03-18T18:26:08.685Z,20.02
2023-03-18T18:28:36.772Z,19.85
2023-03-18T18:31:05.411Z,21.38
2023-03-18T18:33:32.889Z,22.75
2023-03-18T18:36:00.478Z,29.10
2023-03-18T18:38:28.483Z,29.20
2023-03-18T18:40:56.413Z,21.80
2023-03-18T18:43:24.042Z,18.75
2023-03-18T18:45:52.820Z,18.33
2023-03-18T18:48:23.507Z,21.85
2023-03-18T18:50:51.381Z,17.15
2023-03-18T18:53:22.259Z,16.77
2023-03-18T18:55:49.457Z,18.50
2023-03-18T18:58:20.332Z,15.57
2023-03-18T19:00:49.621Z,18.60
2023-03-18T19:03:18.578Z,15.98
2023-03-18T19:05:46.362Z,26.20
2023-03-18T19:08:29.687Z,15.75
2023-03-18T19:11:01.279Z,21.48
2023-03-18T19:13:29.527Z,22.13
2023-03-18T19:15:58.104Z,20.77
2023-03-18T19:18:26.111Z,22.45
2023-03-18T19:20:54.075Z,20.05
2023-03-18T19:23:26.751Z,19.83
2023-03-18T19:25:54.843Z,22.25
2023-03-18T19:28:31.435Z,18.77
2023-03-18T19:30:58.845Z,22.25
2023-03-18T19:33:26.047Z,19.55
2023-03-18T19:35:53.136Z,23.50
2023-03-18T19:38:21.335Z,19.10
2023-03-18T19:40:49.759Z,20.48
2023-03-18T19:43:18.502Z,19.73
2023-03-18T19:45:50.669Z,20.25
2023-03-18T19:48:20.562Z,24.45
2023-03-18T19:50:47.801Z,18.23
2023-03-18T19:53:18.567Z,17.83
2023-03-18T19:55:46.423Z,16.08
2023-03-18T19:58:19.305Z,16.80
2023-03-18T20:00:46.711Z,19.55
2023-03-18T20:03:17.975Z,15.38
2023-03-18T20:05:45.283Z,15.30
2023-03-18T20:08:12.305Z,20.58
2023-03-18T20:10:40.928Z,17.10
2023-03-18T20:13:11.769Z,19.08
2023-03-18T20:15:38.859Z,17.15
2023-03-18T20:18:06.710Z,17.25
2023-03-18T20:20:34.381Z,18.70
2023-03-18T20:23:06.318Z,18.27
2023-03-18T20:28:04.602Z,15.85
2023-03-18T20:30:33.880Z,13.52
2023-03-18T20:33:04.049Z,15.10
2023-03-18T20:35:32.980Z,14.73
2023-03-18T20:38:04.799Z,16.10
2023-03-18T20:40:32.652Z,15.23
2023-03-18T20:42:59.913Z,18.90
2023-03-18T20:45:27.077Z,17.75
2023-03-18T20:47:54.163Z,17.20
2023-03-18T20:50:22.849Z,19.65
2023-03-18T20:52:50.646Z,17.98
2023-03-18T20:55:22.522Z,19.85
2023-03-18T20:57:50.097Z,18.67
2023-03-18T21:00:22.942Z,22.85
2023-03-18T21:02:51.755Z,20.65
2023-03-18T21:05:19.147Z,20.63
2023-03-18T21:07:47.561Z,23.05
2023-03-18T21:10:21.692Z,20.23
2023-03-18T21:12:49.160Z,21.50
2023-03-18T21:15:23.523Z,25.73
2023-03-18T21:17:50.608Z,24.75
2023-03-18T21:20:22.399Z,23.05
2023-03-18T21:22:51.244Z,23.20
2023-03-18T21:25:19.406Z,23.33
2023-03-18T21:27:47.155Z,21.30
2023-03-18T21:30:15.385Z,23.23
2023-03-18T21:32:44.522Z,24.73
2023-03-18T21:35:17.121Z,20.23
2023-03-18T21:37:44.328Z,23.80
2023-03-18T21:40:16.058Z,28.25
2023-03-18T21:42:43.671Z,23.27
2023-03-18T21:45:18.667Z,26.77
2023-03-18T21:47:45.961Z,25.92
2023-03-18T21:50:23.981Z,28.63
2023-03-18T21:52:51.295Z,21.10
2023-03-18T21:55:18.752Z,22.63
2023-03-18T21:57:48.722Z,23.38
2023-03-18T22:00:17.560Z,22.80
2023-03-18T22:02:44.640Z,23.17
2023-03-18T22:05:12.874Z,25.88
2023-03-18T22:07:39.952Z,21.23
2023-03-18T22:10:07.239Z,20.50
2023-03-18T22:12:34.905Z,19.08
2023-03-18T22:15:01.959Z,19.98
2023-03-18T22:17:28.996Z,18.20
2023-03-18T22:19:57.016Z,19.05
2023-03-18T22:22:25.620Z,18.80
2023-03-18T22:24:52.741Z,18.05
2023-03-18T22:27:24.168Z,17.52
2023-03-18T22:29:51.601Z,17.88
2023-03-18T22:32:29.619Z,17.55
2023-03-18T22:34:56.720Z,18.77
2023-03-18T22:37:24.550Z,18.23
2023-03-18T22:39:51.705Z,19.58
2023-03-18T22:42:20.636Z,19.17
2023-03-18T22:44:47.731Z,24.63
2023-03-18T22:47:19.516Z,20.55
2023-03-18T22:49:46.901Z,15.50
2023-03-18T22:52:20.292Z,18.27
2023-03-18T22:54:47.966Z,21.58
2023-03-18T22:57:18.280Z,18.80
2023-03-18T22:59:45.702Z,15.45
2023-03-18T23:02:18.315Z,16.23
2023-03-18T23:04:46.037Z,18.20
2023-03-18T23:07:21.337Z,17.33
2023-03-18T23:09:56.474Z,17.45
2023-03-18T23:12:25.718Z,17.77
2023-03-18T23:14:53.237Z,16.25
2023-03-18T23:17:21.918Z,20.40
2023-03-18T23:19:49.378Z,22.38
2023-03-18T23:22:18.691Z,19.70
2023-03-18T23:24:45.886Z,17.20
2023-03-18T23:27:12.920Z,15.65
2023-03-18T23:29:39.935Z,15.63
2023-03-18T23:32:07.233Z,15.82
2023-03-18T23:34:34.301Z,17.00
2023-03-18T23:37:01.389Z,19.92
2023-03-18T23:39:28.703Z,16.58
2023-03-18T23:41:55.935Z,20.90
2023-03-18T23:44:23.197Z,42.63
2023-03-18T23:46:50.268Z,18.63
2023-03-18T23:49:18.130Z,16.90
2023-03-18T23:51:45.258Z,15.23
2023-03-18T23:54:12.356Z,18.73
2023-03-18T23:56:39.373Z,17.02
2023-03-18T23:59:06.386Z,16.50
